createdAt,value
2023-01-04T00:00:45.072Z,17.08
2023-01-04T00:01:44.999Z,17.11
2023-01-04T00:02:45.147Z,17.11
2023-01-04T00:03:45.099Z,17.14
2023-01-04T00:04:44.984Z,17.14
2023-01-04T00:05:44.985Z,17.19
2023-01-04T00:06:44.975Z,17.19
2023-01-04T00:07:44.973Z,17.12
2023-01-04T00:08:44.961Z,17.22
2023-01-04T00:09:44.982Z,17.19
2023-01-04T00:10:44.963Z,17.15
2023-01-04T00:11:44.960Z,17.19
2023-01-04T00:12:44.952Z,17.19
2023-01-04T00:13:44.977Z,17.16
2023-01-04T00:14:44.959Z,17.19
2023-01-04T00:15:45.036Z,17.15
2023-01-04T00:16:45.134Z,17.23
2023-01-04T00:17:44.968Z,17.19
2023-01-04T00:18:44.976Z,17.22
2023-01-04T00:19:44.944Z,17.22
2023-01-04T00:20:44.948Z,17.31
2023-01-04T00:21:44.946Z,17.26
2023-01-04T00:22:44.937Z,17.26
2023-01-04T00:23:44.936Z,17.28
2023-01-04T00:24:44.940Z,17.26
2023-01-04T00:25:44.929Z,17.26
2023-01-04T00:26:44.913Z,17.25
2023-01-04T00:27:44.915Z,17.30
2023-01-04T00:28:51.659Z,17.36
2023-01-04T00:29:44.911Z,17.28
2023-01-04T00:30:44.944Z,17.33
2023-01-04T00:31:45.062Z,17.34
2023-01-04T00:32:44.938Z,17.30
2023-01-04T00:33:44.885Z,17.31
2023-01-04T00:34:44.928Z,17.33
2023-01-04T00:35:46.355Z,17.31
2023-01-04T00:36:44.906Z,17.33
2023-01-04T00:37:51.658Z,17.36
2023-01-04T00:38:44.887Z,17.34
2023-01-04T00:39:44.882Z,17.34
2023-01-04T00:40:44.872Z,17.31
2023-01-04T00:42:01.528Z,17.31
2023-01-04T00:42:44.873Z,17.30
2023-01-04T00:43:44.878Z,17.28
2023-01-04T00:44:45.006Z,17.41
2023-01-04T00:45:44.856Z,17.33
2023-01-04T00:46:44.896Z,17.33
2023-01-04T00:47:44.838Z,17.37
2023-01-04T00:48:48.709Z,17.37
2023-01-04T00:49:44.850Z,17.31
2023-01-04T00:50:44.853Z,17.49
2023-01-04T00:51:44.841Z,17.44
2023-01-04T00:52:44.840Z,17.40
2023-01-04T00:53:44.844Z,17.41
2023-01-04T00:54:44.831Z,17.44
2023-01-04T00:55:44.821Z,17.49
2023-01-04T00:56:44.879Z,17.41
2023-01-04T00:57:44.823Z,17.44
2023-01-04T00:58:44.821Z,17.46
2023-01-04T00:59:44.819Z,17.44
2023-01-04T01:00:44.819Z,17.44
2023-01-04T01:01:45.118Z,17.51
2023-01-04T01:02:45.054Z,17.46
2023-01-04T01:03:44.949Z,17.44
2023-01-04T01:04:44.803Z,17.48
2023-01-04T01:05:44.784Z,17.49
2023-01-04T01:06:44.830Z,17.52
2023-01-04T01:07:44.809Z,17.43
2023-01-04T01:08:44.780Z,17.52
2023-01-04T01:09:44.769Z,17.48
2023-01-04T01:10:44.772Z,17.48
2023-01-04T01:11:44.767Z,17.55
2023-01-04T01:12:44.812Z,17.48
2023-01-04T01:13:44.760Z,17.48
2023-01-04T01:14:44.759Z,17.54
2023-01-04T01:15:44.817Z,17.49
2023-01-04T01:17:00.129Z,17.52
2023-01-04T01:17:44.750Z,17.43
2023-01-04T01:18:44.759Z,17.44
2023-01-04T01:19:44.794Z,17.46
2023-01-04T01:20:44.752Z,17.46
2023-01-04T01:21:44.758Z,17.49
2023-01-04T01:22:44.760Z,17.49
2023-01-04T01:23:44.757Z,17.44
2023-01-04T01:24:44.745Z,17.52
2023-01-04T01:25:44.733Z,17.43
2023-01-04T01:26:44.766Z,17.44
2023-01-04T01:27:44.740Z,17.46
2023-01-04T01:28:44.724Z,17.51
2023-01-04T01:29:44.716Z,17.51
2023-01-04T01:30:46.003Z,17.52
2023-01-04T01:31:44.860Z,17.46
2023-01-04T01:32:44.726Z,17.51
2023-01-04T01:33:44.696Z,17.51
2023-01-04T01:34:44.865Z,17.48
2023-01-04T01:35:44.702Z,17.52
2023-01-04T01:36:44.703Z,17.51
2023-01-04T01:37:44.688Z,17.56
2023-01-04T01:38:44.725Z,17.46
2023-01-04T01:39:44.679Z,17.52
2023-01-04T01:40:44.677Z,17.59
2023-01-04T01:41:44.670Z,17.52
2023-01-04T01:42:44.688Z,17.56
2023-01-04T01:43:44.683Z,17.59
2023-01-04T01:44:44.681Z,17.62
2023-01-04T01:45:44.669Z,17.59
2023-01-04T01:46:44.771Z,17.55
2023-01-04T01:47:44.683Z,17.55
2023-01-04T01:48:44.669Z,17.58
2023-01-04T01:49:44.657Z,17.54
2023-01-04T01:50:44.662Z,17.63
2023-01-04T01:51:44.641Z,17.56
2023-01-04T01:52:44.656Z,17.54
2023-01-04T01:53:44.635Z,17.62
2023-01-04T01:54:44.681Z,17.63
2023-01-04T01:55:44.653Z,17.59
2023-01-04T01:56:44.642Z,17.58
2023-01-04T01:57:44.634Z,17.54
2023-01-04T01:58:44.655Z,17.55
2023-01-04T01:59:44.622Z,17.55
2023-01-04T02:00:44.626Z,17.58
2023-01-04T02:01:44.805Z,17.55
2023-01-04T02:02:44.834Z,17.56
2023-01-04T02:03:44.694Z,17.63
2023-01-04T02:04:44.620Z,17.55
2023-01-04T02:05:44.594Z,17.58
2023-01-04T02:06:44.625Z,17.62
2023-01-04T02:07:44.608Z,17.63
2023-01-04T02:08:44.607Z,17.58
2023-01-04T02:09:44.597Z,17.52
2023-01-04T02:10:44.623Z,17.56
2023-01-04T02:11:44.594Z,17.63
2023-01-04T02:12:44.598Z,17.59
2023-01-04T02:13:44.591Z,17.63
2023-01-04T02:14:44.591Z,17.62
2023-01-04T02:15:44.629Z,17.55
2023-01-04T02:16:44.587Z,17.62
2023-01-04T02:17:44.589Z,17.64
2023-01-04T02:18:44.575Z,17.58
2023-01-04T02:19:44.557Z,17.70
2023-01-04T02:20:44.561Z,17.54
2023-01-04T02:21:44.553Z,17.64
2023-01-04T02:22:44.545Z,17.62
2023-01-04T02:23:44.566Z,17.64
2023-01-04T02:24:44.547Z,17.63
2023-01-04T02:25:44.551Z,17.71
2023-01-04T02:26:44.564Z,17.68
2023-01-04T02:27:44.533Z,17.59
2023-01-04T02:28:44.532Z,17.62
2023-01-04T02:29:44.526Z,17.63
2023-01-04T02:30:44.547Z,17.62
2023-01-04T02:31:44.589Z,17.63
2023-01-04T02:32:44.537Z,17.68
2023-01-04T02:33:44.532Z,17.68
2023-01-04T02:34:44.516Z,17.68
2023-01-04T02:35:44.523Z,17.68
2023-01-04T02:36:44.517Z,17.66
2023-01-04T02:37:44.506Z,17.71
2023-01-04T02:38:44.517Z,17.71
2023-01-04T02:39:44.496Z,17.72
2023-01-04T02:40:44.503Z,17.70
2023-01-04T02:41:44.500Z,17.70
2023-01-04T02:42:44.503Z,17.62
2023-01-04T02:43:44.480Z,17.75
2023-01-04T02:44:44.485Z,17.64
2023-01-04T02:45:44.496Z,17.71
2023-01-04T02:46:44.550Z,17.64
2023-01-04T02:47:44.503Z,17.68
2023-01-04T02:48:44.471Z,17.68
2023-01-04T02:49:44.486Z,17.71
2023-01-04T02:50:44.465Z,17.75
2023-01-04T02:51:44.472Z,17.77
2023-01-04T02:52:44.456Z,17.71
2023-01-04T02:53:44.454Z,17.75
2023-01-04T02:54:44.446Z,17.71
2023-01-04T02:55:44.449Z,17.72
2023-01-04T02:56:44.441Z,17.71
2023-01-04T02:57:44.446Z,17.70
2023-01-04T02:58:44.456Z,17.66
2023-01-04T02:59:44.448Z,17.71
2023-01-04T03:00:44.453Z,17.71
2023-01-04T03:01:44.495Z,17.74
2023-01-04T03:02:44.593Z,17.70
2023-01-04T03:03:44.485Z,17.72
2023-01-04T03:04:44.429Z,17.71
2023-01-04T03:05:44.414Z,17.68
2023-01-04T03:06:44.421Z,17.72
2023-01-04T03:07:44.417Z,17.74
2023-01-04T03:08:44.455Z,17.78
2023-01-04T03:09:44.415Z,17.74
2023-01-04T03:10:44.407Z,17.75
2023-01-04T03:11:44.420Z,17.74
2023-01-04T03:12:44.394Z,17.74
2023-01-04T03:13:44.405Z,17.77
2023-01-04T03:14:44.419Z,17.74
2023-01-04T03:15:44.416Z,17.75
2023-01-04T03:16:44.408Z,17.75
2023-01-04T03:17:44.394Z,17.71
2023-01-04T03:18:44.385Z,17.75
2023-01-04T03:19:44.419Z,17.72
2023-01-04T03:20:44.384Z,17.72
2023-01-04T03:21:44.369Z,17.74
2023-01-04T03:22:44.391Z,17.72
2023-01-04T03:23:44.375Z,17.74
2023-01-04T03:24:44.373Z,17.71
2023-01-04T03:25:44.374Z,17.77
2023-01-04T03:26:44.366Z,17.77
2023-01-04T03:27:44.357Z,17.78
2023-01-04T03:28:44.365Z,17.79
2023-01-04T03:29:44.361Z,17.72
2023-01-04T03:30:44.361Z,17.75
2023-01-04T03:31:44.376Z,17.77
2023-01-04T03:32:44.369Z,17.77
2023-01-04T03:33:44.353Z,17.77
2023-01-04T03:34:44.360Z,17.78
2023-01-04T03:35:44.325Z,17.78
2023-01-04T03:36:44.334Z,17.79
2023-01-04T03:37:44.329Z,17.74
2023-01-04T03:38:44.339Z,17.77
2023-01-04T03:39:45.974Z,17.72
2023-01-04T03:40:44.393Z,17.72
2023-01-04T03:41:44.356Z,17.78
2023-01-04T03:42:44.308Z,17.74
2023-01-04T03:43:44.333Z,17.74
2023-01-04T03:44:44.298Z,17.74
2023-01-04T03:45:44.306Z,17.71
2023-01-04T03:46:44.360Z,17.72
2023-01-04T03:47:44.286Z,17.75
2023-01-04T03:48:44.305Z,17.77
2023-01-04T03:49:44.279Z,17.79
2023-01-04T03:50:44.287Z,17.74
2023-01-04T03:51:44.292Z,17.75
2023-01-04T03:52:44.292Z,17.72
2023-01-04T03:53:44.293Z,17.87
2023-01-04T03:54:44.288Z,17.75
2023-01-04T03:55:44.276Z,17.75
2023-01-04T03:56:44.279Z,17.77
2023-01-04T03:57:44.255Z,17.81
2023-01-04T03:58:44.269Z,17.77
2023-01-04T03:59:44.245Z,17.79
2023-01-04T04:00:44.284Z,17.79
2023-01-04T04:01:44.405Z,17.75
2023-01-04T04:02:44.259Z,17.72
2023-01-04T04:03:44.291Z,17.78
2023-01-04T04:04:44.241Z,17.81
2023-01-04T04:05:44.248Z,17.87
2023-01-04T04:06:44.246Z,17.79
2023-01-04T04:07:44.227Z,17.84
2023-01-04T04:08:44.226Z,17.87
2023-01-04T04:09:44.243Z,17.81
2023-01-04T04:10:44.245Z,17.87
2023-01-04T04:11:44.232Z,17.78
2023-01-04T04:12:44.215Z,17.81
2023-01-04T04:13:44.222Z,17.84
2023-01-04T04:14:44.221Z,17.78
2023-01-04T04:15:44.202Z,17.86
2023-01-04T04:16:44.292Z,17.82
2023-01-04T04:17:44.210Z,17.78
2023-01-04T04:18:44.213Z,17.87
2023-01-04T04:19:44.197Z,17.89
2023-01-04T04:20:44.187Z,17.84
2023-01-04T04:21:44.196Z,17.79
2023-01-04T04:22:44.204Z,17.81
2023-01-04T04:23:44.193Z,17.86
2023-01-04T04:24:44.198Z,17.82
2023-01-04T04:25:44.220Z,17.82
2023-01-04T04:26:44.207Z,17.82
2023-01-04T04:27:44.171Z,17.79
2023-01-04T04:28:44.166Z,17.81
2023-01-04T04:29:44.176Z,17.86
2023-01-04T04:30:44.157Z,17.84
2023-01-04T04:31:44.224Z,17.78
2023-01-04T04:32:44.153Z,17.84
2023-01-04T04:33:44.162Z,17.81
2023-01-04T04:34:44.204Z,17.81
2023-01-04T04:35:44.143Z,17.87
2023-01-04T04:36:44.151Z,17.78
2023-01-04T04:37:44.158Z,17.86
2023-01-04T04:38:44.149Z,17.82
2023-01-04T04:39:44.136Z,17.84
2023-01-04T04:40:44.138Z,17.82
2023-01-04T04:41:44.127Z,17.89
2023-01-04T04:42:44.141Z,17.79
2023-01-04T04:43:44.118Z,17.78
2023-01-04T04:44:44.123Z,17.86
2023-01-04T04:45:44.173Z,17.87
2023-01-04T04:46:44.121Z,17.87
2023-01-04T04:47:44.107Z,17.87
2023-01-04T04:48:44.123Z,17.90
2023-01-04T04:49:44.099Z,17.87
2023-01-04T04:50:44.133Z,17.89
2023-01-04T04:51:44.107Z,17.87
2023-01-04T04:52:44.103Z,17.84
2023-01-04T04:53:44.098Z,17.86
2023-01-04T04:54:44.103Z,17.86
2023-01-04T04:55:44.105Z,17.84
2023-01-04T04:56:44.078Z,17.87
2023-01-04T04:57:44.089Z,17.84
2023-01-04T04:58:44.086Z,17.90
2023-01-04T04:59:44.099Z,17.87
2023-01-04T05:00:44.119Z,17.89
2023-01-04T05:01:44.224Z,17.87
2023-01-04T05:02:44.262Z,17.84
2023-01-04T05:03:44.204Z,17.84
2023-01-04T05:04:44.075Z,17.95
2023-01-04T05:05:44.060Z,17.87
2023-01-04T05:06:44.081Z,17.92
2023-01-04T05:07:44.051Z,17.95
2023-01-04T05:08:44.058Z,17.87
2023-01-04T05:09:44.045Z,17.90
2023-01-04T05:10:44.057Z,17.89
2023-01-04T05:11:44.064Z,17.90
2023-01-04T05:12:44.025Z,17.90
2023-01-04T05:13:44.028Z,17.86
2023-01-04T05:14:44.022Z,17.86
2023-01-04T05:15:44.044Z,17.90
2023-01-04T05:16:44.140Z,17.89
2023-01-04T05:17:44.027Z,17.93
2023-01-04T05:18:44.021Z,17.86
2023-01-04T05:19:44.011Z,17.86
2023-01-04T05:20:44.016Z,17.84
2023-01-04T05:21:44.018Z,17.89
2023-01-04T05:22:44.029Z,17.93
2023-01-04T05:23:44.024Z,17.92
2023-01-04T05:24:44.009Z,17.86
2023-01-04T05:25:44.006Z,17.82
2023-01-04T05:26:43.985Z,17.89
2023-01-04T05:27:44.000Z,17.93
2023-01-04T05:28:49.930Z,17.95
2023-01-04T05:29:43.994Z,17.86
2023-01-04T05:30:43.975Z,17.92
2023-01-04T05:31:44.035Z,17.90
2023-01-04T05:32:43.964Z,17.93
2023-01-04T05:33:43.965Z,17.92
2023-01-04T05:34:43.973Z,17.86
2023-01-04T05:35:43.970Z,17.90
2023-01-04T05:36:43.954Z,17.86
2023-01-04T05:37:43.968Z,17.92
2023-01-04T05:38:43.989Z,17.87
2023-01-04T05:39:43.964Z,17.90
2023-01-04T05:40:43.981Z,17.89
2023-01-04T05:41:43.941Z,17.86
2023-01-04T05:42:43.964Z,17.90
2023-01-04T05:43:43.946Z,17.92
2023-01-04T05:44:43.943Z,17.89
2023-01-04T05:45:44.003Z,17.84
2023-01-04T05:46:43.941Z,17.92
2023-01-04T05:47:43.923Z,17.92
2023-01-04T05:48:43.931Z,17.89
2023-01-04T05:49:43.956Z,17.86
2023-01-04T05:50:43.924Z,17.87
2023-01-04T05:51:43.927Z,17.90
2023-01-04T05:52:43.924Z,17.92
2023-01-04T05:53:43.943Z,17.86
2023-01-04T05:54:43.932Z,17.89
2023-01-04T05:55:43.916Z,17.87
2023-01-04T05:56:43.907Z,17.87
2023-01-04T05:57:43.919Z,17.92
2023-01-04T05:58:43.901Z,17.86
2023-01-04T05:59:43.895Z,17.86
2023-01-04T06:00:43.884Z,17.93
2023-01-04T06:01:44.118Z,17.86
2023-01-04T06:02:44.041Z,17.96
2023-01-04T06:03:44.074Z,17.90
2023-01-04T06:04:43.887Z,17.95
2023-01-04T06:05:43.892Z,17.87
2023-01-04T06:06:43.864Z,17.90
2023-01-04T06:07:43.884Z,17.89
2023-01-04T06:08:43.871Z,17.87
2023-01-04T06:09:43.861Z,17.87
2023-01-04T06:10:43.867Z,17.90
2023-01-04T06:11:43.876Z,17.96
2023-01-04T06:12:43.860Z,17.89
2023-01-04T06:13:43.858Z,17.92
2023-01-04T06:14:43.885Z,17.96
2023-01-04T06:15:43.855Z,17.93
2023-01-04T06:16:43.881Z,17.93
2023-01-04T06:17:43.854Z,17.87
2023-01-04T06:18:43.842Z,17.97
2023-01-04T06:19:43.846Z,17.97
2023-01-04T06:20:44.058Z,17.82
2023-01-04T06:21:43.838Z,17.92
2023-01-04T06:22:43.831Z,17.89
2023-01-04T06:23:43.841Z,17.95
2023-01-04T06:24:43.824Z,17.87
2023-01-04T06:25:43.820Z,17.89
2023-01-04T06:26:43.824Z,17.89
2023-01-04T06:27:43.807Z,17.93
2023-01-04T06:28:43.799Z,17.89
2023-01-04T06:29:43.800Z,17.95
2023-01-04T06:30:43.873Z,17.87
2023-01-04T06:31:43.798Z,17.89
2023-01-04T06:32:43.786Z,17.89
2023-01-04T06:33:43.795Z,17.97
2023-01-04T06:34:43.790Z,17.90
2023-01-04T06:35:43.794Z,17.92
2023-01-04T06:36:43.788Z,17.92
2023-01-04T06:37:43.802Z,17.97
2023-01-04T06:38:43.777Z,17.97
2023-01-04T06:39:43.771Z,17.93
2023-01-04T06:40:43.760Z,17.95
2023-01-04T06:41:43.781Z,17.87
2023-01-04T06:42:43.787Z,17.89
2023-01-04T06:43:43.788Z,17.92
2023-01-04T06:44:43.768Z,17.87
2023-01-04T06:45:43.804Z,17.97
2023-01-04T06:46:43.831Z,17.96
2023-01-04T06:47:43.772Z,17.92
2023-01-04T06:48:43.737Z,17.82
2023-01-04T06:49:43.768Z,17.95
2023-01-04T06:50:43.741Z,17.96
2023-01-04T06:51:43.748Z,17.90
2023-01-04T06:52:43.740Z,17.92
2023-01-04T06:53:43.736Z,17.89
2023-01-04T06:54:43.721Z,17.84
2023-01-04T06:55:43.730Z,17.93
2023-01-04T06:56:43.724Z,17.97
2023-01-04T06:57:43.712Z,17.90
2023-01-04T06:58:43.724Z,17.89
2023-01-04T06:59:43.720Z,17.95
2023-01-04T07:00:43.745Z,17.92
2023-01-04T07:01:43.845Z,17.97
2023-01-04T07:03:13.992Z,17.90
2023-01-04T07:03:43.698Z,17.99
2023-01-04T07:04:43.838Z,17.96
2023-01-04T07:05:43.714Z,17.95
2023-01-04T07:06:43.679Z,17.93
2023-01-04T07:07:43.695Z,17.86
2023-01-04T07:08:43.693Z,17.92
2023-01-04T07:09:43.688Z,17.87
2023-01-04T07:10:43.670Z,17.92
2023-01-04T07:11:43.698Z,17.93
2023-01-04T07:12:43.665Z,17.82
2023-01-04T07:13:43.664Z,17.90
2023-01-04T07:14:43.686Z,17.90
2023-01-04T07:15:43.766Z,17.84
2023-01-04T07:16:43.726Z,17.96
2023-01-04T07:17:43.709Z,17.87
2023-01-04T07:18:43.669Z,17.90
2023-01-04T07:19:43.650Z,17.90
2023-01-04T07:20:43.666Z,17.84
2023-01-04T07:21:43.658Z,17.95
2023-01-04T07:22:43.633Z,17.86
2023-01-04T07:23:43.663Z,17.97
2023-01-04T07:24:43.631Z,17.84
2023-01-04T07:25:43.629Z,17.87
2023-01-04T07:26:43.636Z,17.89
2023-01-04T07:27:43.639Z,17.99
2023-01-04T07:28:43.614Z,17.89
2023-01-04T07:29:43.630Z,17.92
2023-01-04T07:30:43.742Z,17.93
2023-01-04T07:31:43.615Z,17.86
2023-01-04T07:32:43.628Z,17.95
2023-01-04T07:33:43.615Z,17.93
2023-01-04T07:34:43.613Z,17.82
2023-01-04T07:35:43.625Z,17.89
2023-01-04T07:36:43.601Z,17.92
2023-01-04T07:37:43.612Z,17.92
2023-01-04T07:38:43.600Z,17.86
2023-01-04T07:39:43.585Z,17.93
2023-01-04T07:40:56.388Z,17.90
2023-01-04T07:41:43.619Z,17.92
2023-01-04T07:42:43.588Z,17.86
2023-01-04T07:43:43.603Z,17.96
2023-01-04T07:44:43.567Z,17.95
2023-01-04T07:45:43.584Z,17.90
2023-01-04T07:46:43.745Z,17.90
2023-01-04T07:47:43.583Z,18.02
2023-01-04T07:48:43.554Z,17.86
2023-01-04T07:49:43.569Z,17.92
2023-01-04T07:50:43.550Z,17.87
2023-01-04T07:51:43.551Z,17.97
2023-01-04T07:52:43.546Z,17.89
2023-01-04T07:53:43.567Z,17.90
2023-01-04T07:54:43.561Z,17.95
2023-01-04T07:55:43.579Z,17.86
2023-01-04T07:56:43.556Z,17.84
2023-01-04T07:57:43.544Z,17.93
2023-01-04T07:58:43.533Z,17.92
2023-01-04T07:59:43.538Z,17.90
2023-01-04T08:00:43.529Z,17.86
2023-01-04T08:01:43.630Z,17.95
2023-01-04T08:02:43.875Z,17.89
2023-01-04T08:03:43.526Z,17.93
2023-01-04T08:04:43.538Z,17.90
2023-01-04T08:05:43.532Z,17.92
2023-01-04T08:06:43.521Z,17.92
2023-01-04T08:07:43.517Z,17.89
2023-01-04T08:08:43.502Z,17.87
2023-01-04T08:09:43.511Z,17.90
2023-01-04T08:10:43.495Z,17.99
2023-01-04T08:11:43.505Z,17.87
2023-01-04T08:12:43.503Z,17.96
2023-01-04T08:13:43.498Z,17.95
2023-01-04T08:14:43.492Z,18.00
2023-01-04T08:15:43.553Z,18.03
2023-01-04T08:16:43.490Z,18.00
2023-01-04T08:17:43.488Z,17.93
2023-01-04T08:18:43.495Z,17.95
2023-01-04T08:19:43.471Z,17.97
2023-01-04T08:20:43.460Z,17.99
2023-01-04T08:21:43.484Z,18.03
2023-01-04T08:22:43.489Z,18.07
2023-01-04T08:23:43.474Z,18.05
2023-01-04T08:24:43.462Z,18.12
2023-01-04T08:25:43.449Z,18.07
2023-01-04T08:26:43.467Z,18.12
2023-01-04T08:27:43.450Z,18.11
2023-01-04T08:28:43.457Z,18.20
2023-01-04T08:29:43.450Z,18.18
2023-01-04T08:30:43.432Z,18.29
2023-01-04T08:31:43.510Z,18.23
2023-01-04T08:32:43.465Z,18.23
2023-01-04T08:33:43.430Z,18.32
2023-01-04T08:34:43.449Z,18.26
2023-01-04T08:35:43.425Z,18.37
2023-01-04T08:36:43.418Z,18.37
2023-01-04T08:37:43.420Z,18.37
2023-01-04T08:39:01.038Z,18.50
2023-01-04T08:39:48.703Z,18.48
2023-01-04T08:41:00.256Z,18.48
2023-01-04T08:42:43.403Z,18.57
2023-01-04T08:43:43.405Z,18.55
2023-01-04T08:44:43.417Z,18.55
2023-01-04T08:45:43.410Z,18.63
2023-01-04T08:46:43.474Z,18.67
2023-01-04T08:47:43.392Z,18.60
2023-01-04T08:48:43.399Z,18.70
2023-01-04T08:49:43.410Z,18.69
2023-01-04T08:50:43.403Z,18.73
2023-01-04T08:51:43.393Z,18.82
2023-01-04T08:52:43.373Z,18.81
2023-01-04T08:53:43.377Z,18.85
2023-01-04T08:54:43.373Z,18.80
2023-01-04T08:55:43.370Z,18.95
2023-01-04T08:56:43.404Z,18.95
2023-01-04T08:57:43.375Z,18.94
2023-01-04T08:58:43.376Z,18.92
2023-01-04T08:59:43.373Z,18.95
2023-01-04T09:00:43.369Z,19.06
2023-01-04T09:01:43.556Z,19.08
2023-01-04T09:02:43.540Z,19.06
2023-01-04T09:03:43.368Z,19.11
2023-01-04T09:04:43.382Z,19.18
2023-01-04T09:05:43.351Z,19.26
2023-01-04T09:06:43.417Z,19.31
2023-01-04T09:07:43.365Z,19.26
2023-01-04T09:08:43.365Z,19.22
2023-01-04T09:09:43.387Z,19.29
2023-01-04T09:10:43.350Z,19.40
2023-01-04T09:11:43.361Z,19.33
2023-01-04T09:12:43.350Z,19.32
2023-01-04T09:13:43.350Z,19.47
2023-01-04T09:14:43.331Z,19.40
2023-01-04T09:15:43.403Z,19.40
2023-01-04T09:16:43.416Z,19.44
2023-01-04T09:18:12.069Z,19.48
2023-01-04T09:18:43.342Z,19.44
2023-01-04T09:19:43.340Z,19.51
2023-01-04T09:20:43.318Z,19.43
2023-01-04T09:21:43.364Z,19.46
2023-01-04T09:22:43.350Z,19.47
2023-01-04T09:23:43.320Z,19.44
2023-01-04T09:24:43.343Z,19.55
2023-01-04T09:25:43.312Z,19.50
2023-01-04T09:26:43.324Z,19.54
2023-01-04T09:27:43.317Z,19.43
2023-01-04T09:28:43.328Z,19.55
2023-01-04T09:29:43.298Z,19.48
2023-01-04T09:30:43.314Z,19.50
2023-01-04T09:31:43.415Z,19.50
2023-01-04T09:32:43.310Z,19.51
2023-01-04T09:34:12.817Z,19.55
2023-01-04T09:34:43.311Z,19.51
2023-01-04T09:35:43.294Z,19.55
2023-01-04T09:36:43.310Z,19.50
2023-01-04T09:37:43.291Z,19.50
2023-01-04T09:38:43.305Z,19.54
2023-01-04T09:39:43.292Z,19.51
2023-01-04T09:40:43.284Z,19.55
2023-01-04T09:41:43.311Z,19.56
2023-01-04T09:42:43.286Z,19.55
2023-01-04T09:43:43.271Z,19.56
2023-01-04T09:45:43.271Z,19.51
2023-01-04T09:46:43.341Z,19.50
2023-01-04T09:47:43.286Z,19.50
2023-01-04T09:48:43.270Z,19.51
2023-01-04T09:49:43.263Z,19.50
2023-01-04T09:50:43.279Z,19.48
2023-01-04T09:51:43.274Z,19.50
2023-01-04T09:52:43.273Z,19.50
2023-01-04T09:53:43.255Z,19.47
2023-01-04T09:54:43.301Z,19.48
2023-01-04T09:55:43.270Z,19.51
2023-01-04T09:56:43.272Z,19.48
2023-01-04T09:57:43.261Z,19.46
2023-01-04T09:58:43.251Z,19.39
2023-01-04T09:59:43.244Z,19.46
2023-01-04T10:00:44.060Z,19.46
2023-01-04T10:01:43.430Z,19.44
2023-01-04T10:02:43.521Z,19.39
2023-01-04T10:03:43.365Z,19.39
2023-01-04T10:04:43.244Z,19.32
2023-01-04T10:05:43.235Z,19.37
2023-01-04T10:06:43.241Z,19.39
2023-01-04T10:07:43.242Z,19.37
2023-01-04T10:08:43.229Z,19.39
2023-01-04T10:09:43.244Z,19.40
2023-01-04T10:10:43.247Z,19.28
2023-01-04T10:11:43.222Z,19.33
2023-01-04T10:12:43.247Z,19.32
2023-01-04T10:13:43.218Z,19.31
2023-01-04T10:14:43.222Z,19.36
2023-01-04T10:15:43.218Z,19.29
2023-01-04T10:17:13.346Z,19.28
2023-01-04T10:19:23.938Z,19.22
2023-01-04T10:19:28.704Z,19.28
2023-01-04T10:21:43.245Z,19.26
2023-01-04T10:22:43.224Z,19.29
2023-01-04T10:23:43.226Z,19.22
2023-01-04T10:24:43.209Z,19.28
2023-01-04T10:25:43.208Z,19.31
2023-01-04T10:26:43.217Z,19.28
2023-01-04T10:27:43.292Z,19.18
2023-01-04T10:28:43.215Z,19.22
2023-01-04T10:29:43.193Z,19.23
2023-01-04T10:30:43.280Z,19.28
2023-01-04T10:31:43.310Z,19.21
2023-01-04T10:32:43.187Z,19.23
2023-01-04T10:33:43.194Z,19.25
2023-01-04T10:34:43.183Z,19.22
2023-01-04T10:35:43.179Z,19.16
2023-01-04T10:36:43.190Z,19.13
2023-01-04T10:37:43.193Z,19.21
2023-01-04T10:38:43.192Z,19.22
2023-01-04T10:39:43.181Z,19.13
2023-01-04T10:40:43.182Z,19.19
2023-01-04T10:41:43.208Z,19.18
2023-01-04T10:42:43.197Z,19.16
2023-01-04T10:44:09.729Z,19.10
2023-01-04T10:44:43.174Z,19.11
2023-01-04T10:45:43.165Z,19.14
2023-01-04T10:46:43.242Z,19.11
2023-01-04T10:47:43.172Z,19.08
2023-01-04T10:48:43.153Z,19.10
2023-01-04T10:49:43.175Z,19.11
2023-01-04T10:50:43.168Z,19.04
2023-01-04T10:51:43.146Z,19.11
2023-01-04T10:52:43.163Z,19.08
2023-01-04T10:53:43.140Z,19.08
2023-01-04T10:54:43.145Z,19.02
2023-01-04T10:56:24.029Z,19.10
2023-01-04T10:56:43.151Z,19.08
2023-01-04T10:57:43.150Z,19.06
2023-01-04T10:58:43.156Z,19.07
2023-01-04T10:59:43.145Z,18.99
2023-01-04T11:00:43.160Z,19.04
2023-01-04T11:01:43.436Z,19.07
2023-01-04T11:02:43.308Z,19.02
2023-01-04T11:03:43.177Z,19.06
2023-01-04T11:04:43.142Z,19.06
2023-01-04T11:05:43.130Z,18.99
2023-01-04T11:06:43.147Z,19.00
2023-01-04T11:07:43.124Z,19.02
2023-01-04T11:08:43.147Z,18.99
2023-01-04T11:09:43.119Z,19.04
2023-01-04T11:10:43.108Z,18.99
2023-01-04T11:11:43.107Z,18.94
2023-01-04T11:12:43.119Z,19.04
2023-01-04T11:13:43.109Z,18.99
2023-01-04T11:14:43.255Z,19.02
2023-01-04T11:15:43.093Z,18.98
2023-01-04T11:16:43.174Z,18.98
2023-01-04T11:17:43.094Z,18.98
2023-01-04T11:18:43.112Z,18.95
2023-01-04T11:19:43.103Z,19.00
2023-01-04T11:20:43.106Z,18.99
2023-01-04T11:21:43.089Z,18.94
2023-01-04T11:22:43.142Z,18.98
2023-01-04T11:23:43.077Z,18.98
2023-01-04T11:25:00.419Z,18.94
2023-01-04T11:25:43.079Z,18.98
2023-01-04T11:26:43.083Z,18.99
2023-01-04T11:27:43.103Z,18.95
2023-01-04T11:28:43.074Z,18.98
2023-01-04T11:29:43.060Z,18.95
2023-01-04T11:30:43.085Z,18.95
2023-01-04T11:31:43.155Z,18.95
2023-01-04T11:32:43.079Z,18.94
2023-01-04T11:33:43.091Z,18.92
2023-01-04T11:34:43.070Z,18.94
2023-01-04T11:35:43.274Z,18.95
2023-01-04T11:36:43.092Z,18.90
2023-01-04T11:37:43.047Z,18.82
2023-01-04T11:38:43.067Z,18.91
2023-01-04T11:39:43.060Z,18.94
2023-01-04T11:40:43.049Z,18.92
2023-01-04T11:41:43.065Z,18.94
2023-01-04T11:42:43.043Z,18.88
2023-01-04T11:43:43.034Z,18.91
2023-01-04T11:44:43.043Z,18.88
2023-01-04T11:45:43.053Z,18.91
2023-01-04T11:46:43.062Z,18.92
2023-01-04T11:47:43.044Z,18.80
2023-01-04T11:48:43.042Z,19.00
2023-01-04T11:49:43.060Z,18.91
2023-01-04T11:50:43.051Z,18.88
2023-01-04T11:51:43.044Z,18.90
2023-01-04T11:52:43.041Z,18.91
2023-01-04T11:53:43.013Z,18.91
2023-01-04T11:54:43.016Z,18.92
2023-01-04T11:55:43.025Z,18.94
2023-01-04T11:56:43.013Z,18.94
2023-01-04T11:57:43.027Z,18.94
2023-01-04T11:58:43.037Z,18.87
2023-01-04T11:59:43.000Z,18.94
2023-01-04T12:00:43.019Z,18.94
2023-01-04T12:01:43.125Z,18.90
2023-01-04T12:03:00.629Z,18.90
2023-01-04T12:03:43.007Z,18.90
2023-01-04T12:04:43.011Z,18.87
2023-01-04T12:05:42.987Z,18.88
2023-01-04T12:06:43.004Z,18.91
2023-01-04T12:07:42.995Z,18.84
2023-01-04T12:08:42.993Z,18.82
2023-01-04T12:09:42.981Z,18.88
2023-01-04T12:10:42.990Z,18.90
2023-01-04T12:11:42.996Z,18.82
2023-01-04T12:12:42.977Z,18.85
2023-01-04T12:13:42.969Z,18.82
2023-01-04T12:14:42.991Z,18.87
2023-01-04T12:15:42.984Z,18.80
2023-01-04T12:16:42.983Z,18.84
2023-01-04T12:17:43.501Z,18.87
2023-01-04T12:18:42.994Z,18.90
2023-01-04T12:19:42.955Z,18.81
2023-01-04T12:20:42.958Z,18.84
2023-01-04T12:21:42.967Z,18.87
2023-01-04T12:22:42.995Z,18.87
2023-01-04T12:23:42.953Z,18.84
2023-01-04T12:24:43.237Z,18.84
2023-01-04T12:25:42.961Z,18.87
2023-01-04T12:26:42.953Z,18.82
2023-01-04T12:27:42.939Z,18.88
2023-01-04T12:28:43.008Z,18.82
2023-01-04T12:29:42.940Z,18.87
2023-01-04T12:30:42.937Z,18.87
2023-01-04T12:31:42.926Z,18.84
2023-01-04T12:32:42.970Z,18.85
2023-01-04T12:33:42.949Z,18.87
2023-01-04T12:34:42.991Z,18.82
2023-01-04T12:35:42.941Z,18.81
2023-01-04T12:36:42.951Z,18.81
2023-01-04T12:37:42.939Z,18.81
2023-01-04T12:38:42.931Z,18.82
2023-01-04T12:39:42.923Z,18.84
2023-01-04T12:40:42.931Z,18.87
2023-01-04T12:41:42.929Z,18.81
2023-01-04T12:42:42.920Z,18.78
2023-01-04T12:43:46.912Z,18.80
2023-01-04T12:44:42.907Z,18.78
2023-01-04T12:45:42.952Z,18.78
2023-01-04T12:46:43.012Z,18.75
2023-01-04T12:47:42.897Z,18.84
2023-01-04T12:48:42.899Z,18.82
2023-01-04T12:49:42.890Z,18.78
2023-01-04T12:50:47.847Z,18.76
2023-01-04T12:51:58.416Z,18.78
2023-01-04T12:53:02.396Z,18.78
2023-01-04T12:53:42.889Z,18.87
2023-01-04T12:54:42.909Z,18.81
2023-01-04T12:55:44.180Z,18.82
2023-01-04T12:56:42.908Z,18.75